Time;durP1;ratioP1;P1;durP2;ratioP2;P2;SDS_P1;SDS_P2;PMS_P1;PMS_P2;Temp;Humidity;BMP_temperature;BMP_pressure;BME280_temperature;BME280_humidity;BME280_pressure;Samples;Min_cycle;Max_cycle;Signal;HPM_P1;HPM_P2
2021/12/22 00:09:25;;;;;;;57.90;22.80;;;;;;;-2.62;82.51;99420.53;422495;1311;107782;-40
2021/12/22 00:19:28;;;;;;;51.40;20.40;;;;;;;-2.70;82.70;99425.33;422662;1307;97930;-40
2021/12/22 00:29:32;;;;;;;47.10;19.80;;;;;;;-2.79;82.76;99431.55;422447;1310;98065;-41
2021/12/22 00:39:36;;;;;;;48.00;20.50;;;;;;;-2.87;82.96;99436.73;422423;1307;109026;-40
2021/12/22 00:49:40;;;;;;;44.60;22.10;;;;;;;-2.84;82.74;99437.83;422381;1310;97932;-40
2021/12/22 00:59:48;;;;;;;35.00;18.00;;;;;;;-2.69;82.80;99449.42;422293;1307;110157;-39
2021/12/22 01:10:17;;;;;;;35.30;19.00;;;;;;;-2.53;82.86;99455.70;422453;1307;97926;-41
2021/12/22 01:20:25;;;;;;;;;;;;;;;-2.49;83.08;99458.98;422432;1307;111132;-42
2021/12/22 01:30:31;;;;;;;42.50;19.50;;;;;;;-2.59;83.09;99465.33;422542;1308;108788;-40
2021/12/22 01:40:39;;;;;;;43.60;19.20;;;;;;;-2.71;83.17;99463.69;422358;1307;98045;-41
2021/12/22 01:50:46;;;;;;;37.90;17.50;;;;;;;-2.86;83.06;99467.17;422279;1307;100101;-40
2021/12/22 02:00:49;;;;;;;43.40;19.90;;;;;;;-2.98;83.13;99473.50;422392;1307;107796;-40
2021/12/22 02:35:05;;;;;;;46.30;21.00;;;;;;;-2.79;83.52;99475.92;422213;1310;108272;-40
2021/12/22 04:05:50;;;;;;;54.60;26.20;;;;;;;-3.28;83.97;99525.95;422145;1307;111475;-40
2021/12/22 04:16:08;;;;;;;40.90;19.10;;;;;;;-3.38;83.78;99527.89;419844;1312;108783;-39
2021/12/22 04:38:14;;;;;;;75.40;32.90;;;;;;;-3.72;83.77;99528.65;422090;1310;111496;-40
2021/12/22 04:48:18;;;;;;;46.90;26.90;;;;;;;-3.74;83.80;99526.20;422078;1309;108927;-40
2021/12/22 04:58:26;;;;;;;62.90;27.60;;;;;;;-3.67;84.00;99529.32;422144;1309;98051;-42
2021/12/22 05:08:30;;;;;;;123.00;54.90;;;;;;;-3.75;83.81;99532.80;422075;1310;109141;-40
2021/12/22 05:29:05;;;;;;;83.30;35.90;;;;;;;-4.06;83.92;99549.31;422187;1309;98274;-41
2021/12/22 05:39:09;;;;;;;65.20;32.00;;;;;;;-4.22;84.00;99556.66;422105;1310;109566;-40
2021/12/22 05:49:13;;;;;;;93.90;36.10;;;;;;;-4.42;83.89;99558.86;422185;1309;96759;-40
2021/12/22 05:59:17;;;;;;;69.50;33.70;;;;;;;-4.50;83.94;99567.36;422229;1310;111081;-42
2021/12/22 06:09:21;;;;;;;48.60;24.10;;;;;;;-4.51;83.63;99587.52;422268;1310;108758;-41
2021/12/22 06:19:25;;;;;;;52.40;29.50;;;;;;;-4.53;83.70;99611.73;422276;1310;98292;-39
2021/12/22 06:29:33;;;;;;;56.00;24.60;;;;;;;-4.51;84.01;99616.83;422665;1310;107545;-44
2021/12/22 06:39:37;;;;;;;108.90;39.90;;;;;;;-4.61;83.79;99624.04;422515;1310;108746;-41
2021/12/22 06:49:41;;;;;;;76.30;31.80;;;;;;;-4.84;83.64;99630.18;422296;1310;98422;-40
2021/12/22 06:59:45;;;;;;;67.50;27.20;;;;;;;-5.05;83.66;99644.04;422113;1310;109110;-39
2021/12/22 07:09:52;;;;;;;65.60;28.10;;;;;;;-5.23;83.62;99656.60;418092;1310;5586787;-39
2021/12/22 07:19:55;;;;;;;58.70;30.00;;;;;;;-5.06;83.70;99660.20;422263;1310;98064;-39
2021/12/22 07:29:59;;;;;;;35.50;20.80;;;;;;;-4.91;83.48;99667.30;422047;1310;109077;-41
2021/12/22 07:40:03;;;;;;;49.10;22.70;;;;;;;-4.72;83.46;99679.55;421965;1310;97822;-41
2021/12/22 07:50:09;;;;;;;71.40;28.70;;;;;;;-4.45;83.46;99691.57;422258;1309;107193;-42
2021/12/22 08:00:16;;;;;;;103.60;34.00;;;;;;;-3.72;84.12;99689.33;422004;1310;97953;-41
2021/12/22 08:10:20;;;;;;;109.90;40.10;;;;;;;-3.16;83.59;99686.86;422083;1309;97654;-40
2021/12/22 08:20:24;;;;;;;84.40;34.80;;;;;;;-2.46;83.91;99685.38;422304;1309;97909;-40
2021/12/22 08:30:28;;;;;;;97.90;36.70;;;;;;;-0.15;84.37;99688.84;422386;1310;109004;-39
2021/12/22 08:40:32;;;;;;;44.40;21.70;;;;;;;0.68;82.87;99688.33;421692;1309;97961;-42
2021/12/22 08:50:36;;;;;;;26.00;14.80;;;;;;;0.76;81.73;99690.52;422186;1310;98046;-40
2021/12/22 09:00:41;;;;;;;34.80;16.30;;;;;;;-0.01;80.09;99708.94;422298;1310;108809;-40
2021/12/22 09:10:45;;;;;;;28.90;13.00;;;;;;;-1.00;79.78;99711.78;422209;1310;97526;-40
2021/12/22 09:20:49;;;;;;;79.30;32.70;;;;;;;-1.31;79.90;99720.48;422172;1310;97929;-40
2021/12/22 09:30:53;;;;;;;48.70;19.50;;;;;;;-1.47;79.39;99727.84;421853;1310;108831;-42
2021/12/22 09:40:58;;;;;;;26.00;12.60;;;;;;;-1.69;78.22;99717.88;422360;1310;98178;-41
2021/12/22 10:01:29;;;;;;;42.30;20.60;;;;;;;-1.68;77.79;99712.61;422141;1310;108645;-39
2021/12/22 10:21:54;;;;;;;40.00;20.40;;;;;;;-1.85;77.26;99704.52;422125;1310;111223;-40
2021/12/22 10:32:05;;;;;;;25.90;13.30;;;;;;;-1.78;77.24;99705.02;422110;1310;108986;-40
2021/12/22 10:42:12;;;;;;;23.50;11.70;;;;;;;-1.58;76.67;99707.84;422147;1309;98086;-39
2021/12/22 11:02:35;;;;;;;26.20;12.10;;;;;;;-1.80;76.31;99700.19;421724;1309;109887;-40
2021/12/22 11:12:39;;;;;;;15.20;6.70;;;;;;;-1.82;75.82;99692.00;422182;1310;108867;-42
2021/12/22 11:32:50;;;;;;;21.70;8.50;;;;;;;-1.35;75.67;99680.65;422283;1310;111897;-40
2021/12/22 11:42:58;;;;;;;20.10;7.20;;;;;;;-1.32;75.34;99676.08;422226;1310;97929;-40
2021/12/22 11:53:06;;;;;;;47.40;15.50;;;;;;;-1.25;75.86;99668.08;422166;1310;98063;-43
2021/12/22 12:03:22;;;;;;;17.90;7.70;;;;;;;-1.11;75.86;99658.75;422366;1309;97974;-40
2021/12/22 12:23:46;;;;;;;43.60;19.60;;;;;;;-1.27;75.63;99645.91;422085;1309;107868;-41
2021/12/22 12:33:50;;;;;;;116.00;45.80;;;;;;;-1.32;75.90;99642.70;422165;1309;97562;-40
2021/12/22 12:44:06;;;;;;;41.20;16.00;;;;;;;-1.31;76.11;99637.93;421994;1308;97941;-41
2021/12/22 12:54:25;;;;;;;18.50;8.50;;;;;;;-1.42;75.75;99640.13;422274;1310;107587;-41
2021/12/22 13:04:31;;;;;;;22.20;10.40;;;;;;;-1.51;75.67;99636.42;422139;1310;97968;-40
2021/12/22 13:25:11;;;;;;;25.90;12.10;;;;;;;-1.88;75.52;99641.54;421485;1309;108957;-40
2021/12/22 13:35:26;;;;;;;43.00;17.70;;;;;;;-1.92;75.84;99646.52;421881;1309;98780;-43
2021/12/22 13:45:35;;;;;;;31.80;13.00;;;;;;;-2.10;75.65;99648.63;421852;1309;112098;-41
2021/12/22 13:55:39;;;;;;;42.70;13.40;;;;;;;-2.37;75.57;99655.04;421443;1309;108006;-40
2021/12/22 14:05:43;;;;;;;34.60;14.70;;;;;;;-2.54;75.81;99649.44;422092;1310;97967;-41
2021/12/22 14:15:47;;;;;;;89.20;28.80;;;;;;;-2.71;75.82;99653.34;420634;1316;111089;-39
2021/12/22 14:25:51;;;;;;;73.00;29.70;;;;;;;-2.88;75.97;99659.84;420444;1316;108824;-40
2021/12/22 14:35:57;;;;;;;66.00;28.70;;;;;;;-2.99;76.28;99652.63;422364;1310;98239;-40
2021/12/22 14:45:59;;;;;;;48.20;23.00;;;;;;;-3.01;76.38;99655.08;421779;1309;107886;-39
2021/12/22 14:56:04;;;;;;;89.40;35.40;;;;;;;-3.09;76.41;99647.88;421070;1309;98341;-40
2021/12/22 15:06:10;;;;;;;117.40;42.80;;;;;;;-3.23;76.67;99648.77;413989;1313;9223404;-39
2021/12/22 15:16:16;;;;;;;122.40;43.20;;;;;;;-3.29;76.76;99649.23;421867;1310;108875;-40
2021/12/22 15:26:21;;;;;;;215.00;69.30;;;;;;;-3.43;76.93;99655.50;421846;1310;97936;-40
2021/12/22 15:36:25;;;;;;;177.60;62.20;;;;;;;-3.57;77.03;99658.10;421810;1309;108930;-40
2021/12/22 15:56:32;;;;;;;104.40;43.90;;;;;;;-3.81;77.24;99649.91;421571;1315;111242;-39
2021/12/22 16:06:36;;;;;;;95.40;40.20;;;;;;;-3.81;77.69;99644.70;421158;1312;107694;-40
2021/12/22 16:16:40;;;;;;;73.50;32.80;;;;;;;-3.70;77.76;99644.77;420441;1316;98057;-40
2021/12/22 16:26:44;;;;;;;104.20;50.30;;;;;;;-3.49;77.78;99644.91;421936;1309;109162;-40
2021/12/22 16:36:51;;;;;;;88.40;33.30;;;;;;;-3.29;77.88;99648.02;421706;1316;97942;-42
2021/12/22 16:46:56;;;;;;;97.20;37.20;;;;;;;-3.28;77.90;99648.83;421595;1310;110855;-39
2021/12/22 16:57:00;;;;;;;109.00;43.30;;;;;;;-3.31;78.10;99644.06;421457;1316;108834;-40
2021/12/22 17:07:06;;;;;;;110.80;40.90;;;;;;;-3.37;78.04;99638.17;421938;1316;97966;-40
2021/12/22 17:27:15;;;;;;;150.30;62.20;;;;;;;-3.53;78.33;99630.58;422326;1309;110861;-40
2021/12/22 17:37:18;;;;;;;217.30;80.50;;;;;;;-3.62;78.23;99618.52;421245;1310;97946;-40
2021/12/22 17:47:24;;;;;;;247.30;95.60;;;;;;;-3.72;78.08;99610.99;421956;1315;97546;-40
2021/12/22 17:57:27;;;;;;;187.70;89.10;;;;;;;-3.73;78.33;99609.52;421822;1316;111279;-41
2021/12/22 18:07:31;;;;;;;169.30;77.10;;;;;;;-3.67;78.30;99600.27;420616;1315;108445;-40
2021/12/22 18:27:39;;;;;;;296.10;116.00;;;;;;;-3.78;78.42;99594.19;421739;1316;109026;-41
2021/12/22 18:48:07;;;;;;;299.50;109.50;;;;;;;-4.14;78.46;99578.98;421634;1316;97939;-39
2021/12/22 18:58:11;;;;;;;273.20;106.20;;;;;;;-4.33;78.61;99577.80;421735;1316;107781;-39
2021/12/22 19:08:15;;;;;;;280.10;105.70;;;;;;;-4.50;78.77;99576.78;420566;1312;98186;-40
2021/12/22 19:18:19;;;;;;;324.10;132.90;;;;;;;-4.65;78.85;99571.67;422115;1316;111436;-39
2021/12/22 19:28:23;;;;;;;320.90;154.20;;;;;;;-4.74;78.56;99566.14;420949;1313;108962;-40
2021/12/22 19:48:45;;;;;;;336.20;125.80;;;;;;;-4.88;78.72;99560.95;421721;1310;108901;-41
2021/12/22 19:58:49;;;;;;;269.90;100.40;;;;;;;-5.07;78.88;99552.68;421436;1309;98038;-40
2021/12/22 20:08:53;;;;;;;257.40;96.90;;;;;;;-5.27;78.87;99544.14;421925;1309;97960;-41
2021/12/22 20:18:57;;;;;;;269.50;99.70;;;;;;;-5.48;79.02;99536.80;421285;1313;108962;-39
2021/12/22 20:29:15;;;;;;;226.00;94.70;;;;;;;-5.57;78.91;99534.70;420186;1313;97586;-40
2021/12/22 20:39:19;;;;;;;209.20;93.70;;;;;;;-5.59;78.97;99532.74;420415;1313;110943;-40
2021/12/22 20:49:23;;;;;;;215.60;93.50;;;;;;;-5.57;79.03;99514.98;420548;1309;108543;-41
2021/12/22 20:59:27;;;;;;;188.50;85.40;;;;;;;-5.63;79.14;99502.31;421475;1309;97858;-40
2021/12/22 21:09:31;;;;;;;191.00;81.90;;;;;;;-5.69;79.25;99498.58;421706;1310;108555;-40
2021/12/22 21:19:34;;;;;;;183.30;86.60;;;;;;;-5.78;79.25;99493.40;420467;1311;97625;-41
2021/12/22 21:29:40;;;;;;;206.80;85.10;;;;;;;-5.87;79.47;99487.84;420273;1311;111549;-40
2021/12/22 21:39:43;;;;;;;197.10;84.50;;;;;;;-5.95;79.51;99489.91;421617;1310;108972;-40
2021/12/22 21:49:47;;;;;;;203.20;86.70;;;;;;;-6.01;79.53;99483.66;421618;1309;97581;-39
2021/12/22 21:59:51;;;;;;;185.30;81.30;;;;;;;-6.04;79.76;99481.11;421601;1310;108902;-40
2021/12/22 22:09:54;;;;;;;204.10;85.40;;;;;;;-6.10;79.70;99471.96;421666;1309;97990;-42
2021/12/22 22:20:01;;;;;;;197.40;82.30;;;;;;;-6.24;79.87;99458.93;421672;1309;111207;-40
2021/12/22 22:30:07;;;;;;;191.30;79.50;;;;;;;-6.32;80.04;99448.55;421376;1309;108375;-40
2021/12/22 22:40:11;;;;;;;184.80;78.20;;;;;;;-6.28;80.36;99438.64;421303;1309;98020;-39
2021/12/22 22:50:16;;;;;;;173.90;73.40;;;;;;;-6.19;80.62;99433.40;421614;1310;109185;-40
2021/12/22 23:00:22;;;;;;;179.70;73.60;;;;;;;-6.05;80.53;99433.80;421682;1309;97932;-42
2021/12/22 23:10:26;;;;;;;172.00;73.10;;;;;;;-6.09;80.53;99425.17;417733;1309;5595545;-40
2021/12/22 23:20:31;;;;;;;168.00;73.10;;;;;;;-6.00;80.61;99412.02;421652;1309;97543;-39
2021/12/22 23:30:35;;;;;;;162.00;69.20;;;;;;;-5.99;80.73;99403.83;421593;1309;111373;-40
2021/12/22 23:40:50;;;;;;;165.50;73.00;;;;;;;-5.98;80.75;99399.02;421059;1310;110041;-41
2021/12/22 23:50:57;;;;;;;166.80;69.00;;;;;;;-5.95;80.96;99388.85;420499;1311;97947;-41
